Time;durP1;ratioP1;P1;durP2;ratioP2;P2;SDS_P1;SDS_P2;PMS_P1;PMS_P2;Temp;Humidity;BMP_temperature;BMP_pressure;BME280_temperature;BME280_humidity;BME280_pressure;Samples;Min_cycle;Max_cycle;Signal;HPM_P1;HPM_P2
2022/02/15 00:00:18;;;;;;;13.25;3.80;;;;;;;2.96;98.34;98523.31;5034131;28;20350;-55
2022/02/15 00:02:44;;;;;;;10.95;3.50;;;;;;;3.14;98.27;98525.25;5036933;28;20032;-55
2022/02/15 00:05:09;;;;;;;25.30;4.30;;;;;;;3.36;97.93;98523.91;5039190;28;20075;-55
2022/02/15 00:07:35;;;;;;;12.57;4.25;;;;;;;3.59;97.22;98528.66;5036814;28;20472;-52
2022/02/15 00:10:01;;;;;;;15.18;3.70;;;;;;;3.81;96.76;98531.75;5029217;28;20355;-56
2022/02/15 00:12:27;;;;;;;10.98;3.80;;;;;;;4.06;95.33;98534.41;5037134;28;20463;-55
2022/02/15 00:14:52;;;;;;;16.83;4.13;;;;;;;4.20;94.57;98529.00;5036490;28;20052;-55
2022/02/15 00:17:18;;;;;;;11.52;3.60;;;;;;;4.30;94.39;98527.47;5031493;28;20117;-55
2022/02/15 00:19:43;;;;;;;12.88;4.20;;;;;;;4.39;94.09;98533.28;5035758;28;20033;-55
2022/02/15 00:22:08;;;;;;;15.27;4.18;;;;;;;4.40;94.00;98532.28;5029327;28;20042;-54
2022/02/15 00:24:34;;;;;;;12.73;4.00;;;;;;;4.41;93.45;98536.53;5034238;28;20049;-55
2022/02/15 00:26:59;;;;;;;14.85;4.60;;;;;;;4.47;93.52;98535.69;5029246;28;20053;-55
2022/02/15 00:29:25;;;;;;;13.40;4.07;;;;;;;4.48;93.60;98531.97;5036418;28;20390;-54
2022/02/15 00:31:50;;;;;;;16.80;4.35;;;;;;;4.43;93.51;98531.84;5037947;28;20763;-55
2022/02/15 00:34:15;;;;;;;12.40;4.05;;;;;;;4.49;93.15;98528.31;5031651;28;20036;-54
2022/02/15 00:36:41;;;;;;;13.82;4.30;;;;;;;4.50;93.02;98540.53;5035078;28;20045;-54
2022/02/15 00:39:07;;;;;;;13.95;3.80;;;;;;;4.44;93.38;98536.13;5033409;28;20029;-55
2022/02/15 00:41:32;;;;;;;7.57;3.58;;;;;;;4.38;93.28;98526.38;5037794;28;20041;-55
2022/02/15 00:43:58;;;;;;;17.30;3.90;;;;;;;4.41;93.18;98525.13;5029766;28;20423;-55
2022/02/15 00:46:23;;;;;;;15.52;4.00;;;;;;;4.35;93.43;98526.03;5037413;28;20558;-54
2022/02/15 00:48:48;;;;;;;13.15;4.40;;;;;;;4.23;94.13;98529.38;5029455;28;20207;-54
2022/02/15 00:51:14;;;;;;;17.45;3.83;;;;;;;4.17;94.59;98538.22;5040855;28;20091;-54
2022/02/15 00:53:39;;;;;;;16.90;3.63;;;;;;;4.16;94.59;98535.78;5033416;28;20048;-55
2022/02/15 00:56:05;;;;;;;12.68;4.07;;;;;;;4.13;94.69;98549.47;5035806;28;20049;-54
2022/02/15 00:58:30;;;;;;;19.00;3.92;;;;;;;4.12;95.28;98538.06;5032883;28;20029;-54
2022/02/15 01:00:56;;;;;;;15.80;3.53;;;;;;;4.18;94.97;98539.03;5028796;28;20037;-55
2022/02/15 01:03:21;;;;;;;13.50;3.60;;;;;;;4.25;94.97;98537.13;5033379;28;20025;-54
2022/02/15 01:05:47;;;;;;;11.85;3.30;;;;;;;4.32;94.53;98545.84;5039340;28;20049;-55
2022/02/15 01:08:12;;;;;;;11.00;3.42;;;;;;;4.43;94.15;98544.28;5033122;28;20033;-55
2022/02/15 01:10:39;;;;;;;14.63;4.10;;;;;;;4.38;94.00;98541.50;5032818;28;20481;-54
2022/02/15 01:13:04;;;;;;;11.98;4.00;;;;;;;4.42;94.09;98546.16;5028755;28;20061;-54
2022/02/15 01:15:30;;;;;;;11.50;3.83;;;;;;;4.42;94.17;98535.53;5029850;28;20084;-55
2022/02/15 01:17:55;;;;;;;10.82;3.50;;;;;;;4.49;93.93;98538.09;5029306;28;20029;-54
2022/02/15 01:20:21;;;;;;;14.50;3.78;;;;;;;4.52;93.89;98535.84;5032581;28;20045;-54
2022/02/15 01:22:46;;;;;;;7.55;3.05;;;;;;;4.59;94.05;98543.72;5033293;28;20417;-54
2022/02/15 01:25:11;;;;;;;11.05;3.38;;;;;;;4.59;93.54;98543.72;5031177;28;20442;-54
2022/02/15 01:27:37;;;;;;;9.15;3.33;;;;;;;4.57;93.95;98540.50;5028377;28;20045;-54
2022/02/15 01:30:04;;;;;;;7.22;3.53;;;;;;;4.51;94.09;98536.84;5030895;28;20444;-55
2022/02/15 01:32:29;;;;;;;10.90;3.15;;;;;;;4.58;94.02;98542.09;5034862;28;20031;-55
2022/02/15 01:34:55;;;;;;;8.38;3.25;;;;;;;4.57;93.81;98535.19;5034025;28;20033;-55
2022/02/15 01:37:20;;;;;;;10.43;3.30;;;;;;;4.61;93.68;98540.84;5032361;28;20487;-53
2022/02/15 01:39:45;;;;;;;11.13;3.83;;;;;;;4.61;93.88;98535.53;5027530;28;20055;-55
2022/02/15 01:42:11;;;;;;;13.93;3.60;;;;;;;4.59;93.73;98537.59;5034522;28;20041;-55
2022/02/15 01:44:36;;;;;;;16.70;3.40;;;;;;;4.50;94.06;98535.25;5043193;28;20057;-54
2022/02/15 01:47:03;;;;;;;11.15;3.45;;;;;;;4.47;94.73;98545.50;5034066;28;20052;-54
2022/02/15 01:49:28;;;;;;;19.08;3.83;;;;;;;4.51;94.75;98552.78;5033069;28;20056;-54
2022/02/15 01:51:54;;;;;;;6.70;3.25;;;;;;;4.49;94.59;98544.25;5028136;28;20048;-54
2022/02/15 01:54:19;;;;;;;12.93;3.58;;;;;;;4.45;95.14;98536.94;5031486;28;20044;-55
2022/02/15 01:56:44;;;;;;;17.63;3.95;;;;;;;4.44;95.45;98535.28;5025927;28;20041;-55
2022/02/15 01:59:10;;;;;;;15.00;4.40;;;;;;;4.43;96.25;98542.44;5032343;28;20037;-53
2022/02/15 02:01:35;;;;;;;14.40;3.50;;;;;;;4.39;96.67;98537.78;5032234;28;20849;-54
2022/02/15 02:04:01;;;;;;;14.02;3.60;;;;;;;4.38;97.47;98539.66;5032362;28;20475;-55
2022/02/15 02:06:26;;;;;;;11.25;3.38;;;;;;;4.42;97.71;98537.34;5032138;28;20076;-55
2022/02/15 02:08:52;;;;;;;18.05;4.43;;;;;;;4.43;97.42;98533.69;5029547;28;20471;-55
2022/02/15 02:11:17;;;;;;;10.65;3.60;;;;;;;4.40;97.76;98539.44;5030061;28;20044;-55
2022/02/15 02:13:43;;;;;;;14.38;3.72;;;;;;;4.36;98.54;98538.25;5026109;28;20041;-55
2022/02/15 02:16:08;;;;;;;19.33;4.53;;;;;;;4.38;98.41;98542.28;5026203;28;20049;-54
2022/02/15 02:18:33;;;;;;;15.98;3.92;;;;;;;4.44;98.48;98545.91;5031175;28;20029;-55
2022/02/15 02:21:05;;;;;;;13.20;4.07;;;;;;;4.41;98.53;98546.34;5035186;28;20053;-54
2022/02/15 02:23:31;;;;;;;17.08;4.88;;;;;;;4.43;98.87;98539.78;5034029;28;20041;-54
2022/02/15 02:25:56;;;;;;;20.17;4.53;;;;;;;4.36;99.43;98544.34;5031011;28;20132;-54
2022/02/15 02:28:22;;;;;;;12.65;4.28;;;;;;;4.39;99.41;98543.91;5031236;28;20059;-54
2022/02/15 02:30:47;;;;;;;9.15;4.05;;;;;;;4.39;99.37;98538.59;5027471;28;20045;-54
2022/02/15 02:33:12;;;;;;;11.50;4.15;;;;;;;4.32;99.81;98545.84;5028767;28;20439;-55
2022/02/15 02:35:38;;;;;;;18.83;4.43;;;;;;;4.28;99.75;98549.94;5033513;28;20056;-54
2022/02/15 02:38:03;;;;;;;11.07;3.95;;;;;;;4.27;100.00;98548.34;5034515;28;20044;-55
2022/02/15 02:40:29;;;;;;;12.40;4.30;;;;;;;4.27;100.00;98557.09;5034524;28;20049;-53
2022/02/15 02:42:54;;;;;;;12.93;3.95;;;;;;;4.35;99.22;98560.50;5027421;28;20191;-56
2022/02/15 02:45:21;;;;;;;9.02;4.03;;;;;;;4.38;99.11;98555.56;5027230;28;20142;-54
2022/02/15 02:47:48;;;;;;;12.43;4.50;;;;;;;4.40;99.20;98564.13;5029224;28;20549;-54
2022/02/15 02:50:14;;;;;;;17.27;4.78;;;;;;;4.42;99.08;98563.88;5035858;28;20029;-55
2022/02/15 02:52:40;;;;;;;9.90;4.25;;;;;;;4.38;99.00;98557.41;5043608;28;20049;-55
2022/02/15 02:55:06;;;;;;;11.95;4.50;;;;;;;4.37;99.27;98558.44;5033409;28;20436;-55
2022/02/15 02:57:33;;;;;;;10.23;4.63;;;;;;;4.38;99.41;98568.84;5032014;28;20036;-55
2022/02/15 02:59:58;;;;;;;15.38;4.28;;;;;;;4.35;99.86;98566.63;5026661;28;20032;-54
2022/02/15 03:02:24;;;;;;;16.35;4.93;;;;;;;4.37;99.70;98561.91;5030748;28;20068;-55
2022/02/15 03:04:49;;;;;;;13.90;5.88;;;;;;;4.33;99.74;98566.03;5028361;28;20042;-55
2022/02/15 03:07:15;;;;;;;10.10;4.07;;;;;;;4.34;99.72;98562.31;5026927;28;20384;-55
2022/02/15 03:09:40;;;;;;;15.25;4.53;;;;;;;4.37;99.72;98571.69;5031454;28;20405;-54
2022/02/15 03:12:06;;;;;;;14.20;4.05;;;;;;;4.38;99.44;98574.13;5029083;28;20041;-55
2022/02/15 03:14:32;;;;;;;10.00;3.83;;;;;;;4.42;99.01;98575.34;5030925;28;20029;-55
2022/02/15 03:16:57;;;;;;;13.60;3.88;;;;;;;4.37;99.49;98577.84;5031710;28;20041;-55
2022/02/15 03:19:22;;;;;;;15.13;4.70;;;;;;;4.39;99.58;98578.41;5030271;28;20044;-54
2022/02/15 03:21:48;;;;;;;7.43;3.55;;;;;;;4.47;99.25;98577.34;5038335;28;20044;-55
2022/02/15 03:24:13;;;;;;;12.93;4.10;;;;;;;4.38;99.58;98579.44;5033414;28;20490;-54
2022/02/15 03:26:39;;;;;;;17.55;3.97;;;;;;;4.32;99.84;98591.75;5028924;28;20484;-54
2022/02/15 03:29:04;;;;;;;11.63;3.58;;;;;;;4.33;100.00;98589.91;5035757;28;20045;-55
2022/02/15 03:31:30;;;;;;;11.55;4.72;;;;;;;4.35;100.00;98595.81;5037358;28;20041;-55
2022/02/15 03:33:56;;;;;;;13.07;4.05;;;;;;;4.36;100.00;98586.81;5038422;28;20040;-56
2022/02/15 03:36:21;;;;;;;15.57;3.80;;;;;;;4.33;100.00;98603.16;5029520;28;20042;-56
2022/02/15 03:38:46;;;;;;;13.82;3.55;;;;;;;4.33;100.00;98611.13;5031056;28;20021;-55
2022/02/15 03:43:56;;;;;;;15.23;4.57;;;;;;;4.35;100.00;98606.41;5035591;28;20057;-54
2022/02/15 03:46:22;;;;;;;14.73;4.43;;;;;;;4.29;100.00;98608.09;5031055;28;20041;-55
2022/02/15 03:48:48;;;;;;;9.65;4.70;;;;;;;4.28;100.00;98611.75;5036740;28;20052;-54
2022/02/15 03:51:13;;;;;;;9.48;4.13;;;;;;;4.31;100.00;98610.53;5035242;28;20100;-55
2022/02/15 03:53:39;;;;;;;11.18;4.43;;;;;;;4.33;100.00;98613.78;5039169;28;20033;-55
2022/02/15 03:56:04;;;;;;;20.52;4.88;;;;;;;4.31;100.00;98621.94;5033215;28;20506;-55
2022/02/15 03:58:30;;;;;;;15.23;4.80;;;;;;;4.35;100.00;98619.69;5035915;28;20040;-55
2022/02/15 04:00:55;;;;;;;18.75;5.10;;;;;;;4.31;100.00;98626.44;5030464;28;20091;-55
2022/02/15 04:03:21;;;;;;;11.18;4.72;;;;;;;4.30;100.00;98630.13;5033938;28;20505;-54
2022/02/15 04:05:46;;;;;;;16.92;5.30;;;;;;;4.29;100.00;98628.50;5034288;28;20041;-54
2022/02/15 04:08:11;;;;;;;13.02;4.70;;;;;;;4.26;100.00;98635.03;5034646;28;20029;-54
2022/02/15 04:10:37;;;;;;;10.70;4.93;;;;;;;4.29;100.00;98639.94;5037972;28;20041;-54
2022/02/15 04:13:02;;;;;;;21.05;5.18;;;;;;;4.23;100.00;98640.78;5035509;28;20041;-54
2022/02/15 04:15:28;;;;;;;11.48;5.00;;;;;;;4.23;100.00;98645.28;5030017;28;20132;-55
2022/02/15 04:17:53;;;;;;;16.92;5.10;;;;;;;4.23;100.00;98646.09;5029819;28;20298;-55
2022/02/15 04:20:18;;;;;;;20.58;5.38;;;;;;;4.18;100.00;98647.78;5033326;28;20056;-54
2022/02/15 04:22:44;;;;;;;13.23;5.00;;;;;;;4.17;100.00;98643.47;5034720;28;20036;-55
2022/02/15 04:25:10;;;;;;;10.98;5.13;;;;;;;4.20;100.00;98645.72;5035740;28;20395;-54
2022/02/15 04:27:35;;;;;;;12.60;5.57;;;;;;;4.18;100.00;98632.66;5035923;28;20050;-54
2022/02/15 04:30:01;;;;;;;15.25;5.70;;;;;;;4.16;100.00;98634.72;5029423;28;20041;-54
2022/02/15 04:32:26;;;;;;;16.27;5.57;;;;;;;4.17;100.00;98635.53;5028612;28;20341;-54
2022/02/15 04:34:52;;;;;;;13.02;5.38;;;;;;;4.11;100.00;98638.00;5043926;28;20040;-53
2022/02/15 04:37:17;;;;;;;15.52;5.28;;;;;;;4.15;100.00;98634.94;5027951;28;20447;-55
2022/02/15 04:39:43;;;;;;;14.23;5.10;;;;;;;4.10;100.00;98647.00;5035976;28;20021;-55
2022/02/15 04:42:08;;;;;;;11.00;5.03;;;;;;;4.07;100.00;98644.78;5033278;28;20037;-55
2022/02/15 04:44:34;;;;;;;18.15;5.70;;;;;;;4.08;100.00;98653.53;5029783;28;20476;-54
2022/02/15 04:46:59;;;;;;;14.10;5.75;;;;;;;4.04;100.00;98653.19;5034521;28;20127;-56
2022/02/15 04:49:25;;;;;;;16.55;5.85;;;;;;;4.06;100.00;98667.00;5029376;28;20052;-55
2022/02/15 04:51:50;;;;;;;26.08;6.28;;;;;;;4.01;100.00;98663.38;5035021;28;20037;-55
2022/02/15 04:54:17;;;;;;;10.43;4.15;;;;;;;4.02;100.00;98657.03;5025857;28;20025;-54
2022/02/15 04:56:43;;;;;;;14.90;5.30;;;;;;;3.96;100.00;98669.31;5038467;28;20294;-55
2022/02/15 04:59:08;;;;;;;19.35;5.88;;;;;;;4.00;100.00;98670.53;5035484;28;20032;-55
2022/02/15 05:01:34;;;;;;;11.88;5.43;;;;;;;3.98;100.00;98680.53;5035346;28;20045;-58
2022/02/15 05:03:59;;;;;;;10.43;5.40;;;;;;;3.97;100.00;98678.91;5029935;28;20592;-54
2022/02/15 05:06:24;;;;;;;11.30;5.45;;;;;;;3.99;100.00;98686.63;5034683;28;20523;-54
2022/02/15 05:08:50;;;;;;;9.93;5.47;;;;;;;3.96;100.00;98684.44;5036307;28;20037;-54
2022/02/15 05:11:15;;;;;;;9.65;5.18;;;;;;;3.96;100.00;98682.56;5029368;28;20049;-54
2022/02/15 05:13:41;;;;;;;13.07;5.45;;;;;;;3.99;100.00;98692.75;5027968;28;20036;-56
2022/02/15 05:16:06;;;;;;;12.20;6.35;;;;;;;4.03;100.00;98701.91;5029454;28;20038;-57
2022/02/15 05:18:32;;;;;;;13.30;5.68;;;;;;;4.09;100.00;98694.94;5031352;28;20033;-56
2022/02/15 05:21:02;;;;;;;10.90;5.53;;;;;;;4.12;100.00;98694.53;5036310;28;20053;-56
2022/02/15 05:23:28;;;;;;;10.57;5.47;;;;;;;4.18;100.00;98708.78;5029202;28;20025;-55
2022/02/15 05:25:54;;;;;;;12.25;6.05;;;;;;;4.15;100.00;98719.81;5038376;28;20045;-55
2022/02/15 05:28:19;;;;;;;10.68;6.22;;;;;;;4.14;100.00;98716.34;5031159;28;20083;-55
2022/02/15 05:30:45;;;;;;;22.48;6.35;;;;;;;4.15;100.00;98727.78;5035762;28;20175;-55
2022/02/15 05:33:10;;;;;;;13.82;6.13;;;;;;;4.20;100.00;98726.09;5034615;28;20028;-56
2022/02/15 05:35:36;;;;;;;15.68;6.57;;;;;;;4.16;100.00;98732.03;5032706;28;20045;-57
2022/02/15 05:38:01;;;;;;;11.23;5.78;;;;;;;4.13;100.00;98735.13;5035378;28;20466;-56
2022/02/15 05:40:26;;;;;;;19.25;6.18;;;;;;;4.15;100.00;98733.88;5033384;28;20096;-57
2022/02/15 05:42:52;;;;;;;13.45;6.00;;;;;;;4.10;100.00;98742.47;5038503;28;20044;-56
2022/02/15 05:45:17;;;;;;;10.18;5.18;;;;;;;4.10;100.00;98745.13;5035157;28;20358;-55
2022/02/15 05:47:43;;;;;;;10.48;5.30;;;;;;;4.07;100.00;98748.22;5026574;28;20033;-56
2022/02/15 05:52:52;;;;;;;13.10;5.70;;;;;;;4.14;100.00;98757.97;5027142;28;20390;-54
2022/02/15 05:55:17;;;;;;;10.90;6.65;;;;;;;4.11;100.00;98760.00;5037228;28;20471;-55
2022/02/15 05:57:43;;;;;;;14.38;5.80;;;;;;;4.21;100.00;98756.09;5028902;28;20026;-54
2022/02/15 06:00:09;;;;;;;9.98;4.55;;;;;;;4.28;100.00;98764.84;5035349;28;20076;-55
2022/02/15 06:02:35;;;;;;;7.53;4.03;;;;;;;4.27;99.17;98758.72;5026266;28;20691;-55
2022/02/15 06:05:00;;;;;;;15.15;4.82;;;;;;;4.37;98.45;98766.22;5033104;28;20033;-54
2022/02/15 06:07:25;;;;;;;9.88;4.13;;;;;;;4.31;99.11;98772.34;5031688;28;20056;-54
2022/02/15 06:09:52;;;;;;;6.90;4.30;;;;;;;4.29;99.54;98769.09;5031904;28;20395;-55
2022/02/15 06:12:18;;;;;;;8.95;4.80;;;;;;;4.25;99.50;98766.06;5026020;28;20045;-55
2022/02/15 06:14:44;;;;;;;8.90;4.25;;;;;;;4.28;98.83;98770.13;5027437;28;20022;-54
2022/02/15 06:17:10;;;;;;;9.52;4.53;;;;;;;4.28;99.18;98767.47;5031259;28;20080;-55
2022/02/15 06:19:36;;;;;;;6.57;3.67;;;;;;;4.24;98.57;98768.94;5033750;28;20033;-53
2022/02/15 06:22:01;;;;;;;8.13;3.30;;;;;;;4.19;98.74;98772.22;5031750;28;20037;-55
2022/02/15 06:24:27;;;;;;;5.88;3.20;;;;;;;4.30;98.43;98776.06;5030927;28;20075;-54
2022/02/15 06:26:52;;;;;;;5.90;3.30;;;;;;;4.24;98.07;98774.22;5034686;28;20482;-55
2022/02/15 06:29:18;;;;;;;6.78;3.42;;;;;;;4.18;98.31;98780.41;5029413;28;20037;-55
2022/02/15 06:31:43;;;;;;;8.10;3.22;;;;;;;4.23;98.13;98786.69;5028895;28;20037;-55
2022/02/15 06:34:08;;;;;;;6.18;3.35;;;;;;;4.37;98.45;98787.44;5033439;28;20040;-58
2022/02/15 06:36:34;;;;;;;6.35;3.80;;;;;;;4.24;97.41;98795.44;5027657;28;20037;-58
2022/02/15 06:38:59;;;;;;;6.57;3.20;;;;;;;4.29;97.03;98800.94;5038030;28;20045;-56
2022/02/15 06:41:25;;;;;;;9.57;3.70;;;;;;;4.29;96.92;98814.19;5033083;28;20423;-54
2022/02/15 06:43:51;;;;;;;5.55;3.38;;;;;;;4.23;97.27;98815.88;5032602;28;20053;-54
2022/02/15 06:46:17;;;;;;;7.35;3.60;;;;;;;4.26;97.23;98818.09;5032495;28;20045;-54
2022/02/15 06:48:42;;;;;;;6.40;3.45;;;;;;;4.22;97.50;98814.25;5026379;28;20463;-55
2022/02/15 06:51:07;;;;;;;9.48;3.88;;;;;;;4.21;97.39;98823.22;5024668;28;20454;-55
2022/02/15 06:53:33;;;;;;;5.68;3.35;;;;;;;4.20;97.10;98826.09;5032672;28;20568;-56
2022/02/15 06:55:59;;;;;;;5.50;3.30;;;;;;;4.23;97.22;98828.31;5031213;28;20045;-55
2022/02/15 06:58:24;;;;;;;6.90;3.55;;;;;;;4.24;96.83;98837.91;5037756;28;20547;-54
2022/02/15 07:00:49;;;;;;;6.05;3.10;;;;;;;4.25;96.67;98843.00;5039138;28;20081;-54
2022/02/15 07:03:15;;;;;;;7.55;3.33;;;;;;;4.29;96.74;98852.19;5033815;28;20041;-54
2022/02/15 07:05:40;;;;;;;6.13;3.65;;;;;;;4.27;96.40;98856.06;5032752;28;20045;-55
2022/02/15 07:08:06;;;;;;;6.93;3.47;;;;;;;4.27;96.31;98864.03;5037379;28;20036;-54
2022/02/15 07:10:32;;;;;;;6.32;3.30;;;;;;;4.29;96.00;98856.66;5035648;28;20525;-57
2022/02/15 07:12:58;;;;;;;6.47;3.25;;;;;;;4.28;95.52;98866.44;5035255;28;20103;-55
2022/02/15 07:15:24;;;;;;;5.55;3.15;;;;;;;4.31;95.50;98867.88;5033787;28;20563;-55
2022/02/15 07:17:49;;;;;;;9.13;3.42;;;;;;;4.31;95.87;98870.53;5031255;28;20087;-54
2022/02/15 07:20:15;;;;;;;8.40;4.05;;;;;;;4.26;95.91;98873.00;5036925;28;20140;-55
2022/02/15 07:22:40;;;;;;;10.07;4.78;;;;;;;4.23;96.24;98881.38;5036762;28;20029;-55
2022/02/15 07:25:06;;;;;;;9.98;4.40;;;;;;;4.20;96.09;98884.47;5028985;28;20111;-55
2022/02/15 07:27:32;;;;;;;12.13;4.47;;;;;;;4.19;96.03;98888.13;5035593;28;20057;-55
2022/02/15 07:29:57;;;;;;;8.07;4.45;;;;;;;4.24;95.17;98893.59;5033995;28;20030;-56
2022/02/15 07:32:26;;;;;;;13.52;4.57;;;;;;;4.23;94.81;98892.81;5030068;28;20045;-55
2022/02/15 07:34:52;;;;;;;10.63;4.40;;;;;;;4.15;94.98;98905.50;5046202;28;20028;-56
2022/02/15 07:37:18;;;;;;;9.18;4.90;;;;;;;4.11;94.97;98894.47;5031909;28;20450;-55
2022/02/15 07:39:43;;;;;;;6.32;3.90;;;;;;;3.99;95.12;98904.91;5034826;28;20061;-56
2022/02/15 07:42:09;;;;;;;8.18;4.43;;;;;;;4.02;95.21;98904.50;5030658;28;20451;-56
2022/02/15 07:44:34;;;;;;;7.68;4.15;;;;;;;4.13;94.80;98910.19;5034993;28;20246;-55
2022/02/15 07:47:00;;;;;;;8.98;4.13;;;;;;;4.16;94.23;98915.88;5028593;28;20042;-55
2022/02/15 07:49:26;;;;;;;8.85;3.92;;;;;;;4.34;93.14;98917.84;5035314;28;20090;-55
2022/02/15 07:51:53;;;;;;;11.35;3.90;;;;;;;4.42;92.78;98920.31;5036001;28;20056;-56
2022/02/15 07:54:19;;;;;;;9.98;3.67;;;;;;;4.56;91.11;98917.59;5038280;28;20060;-55
2022/02/15 07:56:46;;;;;;;9.10;4.20;;;;;;;5.07;90.66;98916.72;5029851;28;20488;-56
2022/02/15 07:59:11;;;;;;;7.47;4.00;;;;;;;4.91;90.18;98921.47;5030796;28;20037;-56
2022/02/15 08:01:37;;;;;;;10.60;4.90;;;;;;;4.88;91.20;98935.19;5035576;28;20461;-56
2022/02/15 08:04:02;;;;;;;6.97;3.75;;;;;;;5.04;89.77;98933.06;5030038;28;20455;-55
2022/02/15 08:06:29;;;;;;;11.85;4.63;;;;;;;4.88;91.03;98937.84;5030847;28;20072;-56
2022/02/15 08:08:55;;;;;;;11.07;4.32;;;;;;;5.21;89.69;98947.47;5040758;28;20055;-56
2022/02/15 08:11:20;;;;;;;9.77;4.13;;;;;;;5.01;90.88;98944.13;5031339;28;20356;-56
2022/02/15 08:13:46;;;;;;;9.10;4.45;;;;;;;4.84;92.98;98949.09;5035260;28;20553;-56
2022/02/15 08:16:11;;;;;;;9.45;4.65;;;;;;;4.98;92.00;98938.19;5033473;28;20034;-55
2022/02/15 08:18:40;;;;;;;7.30;4.20;;;;;;;4.88;92.23;98937.84;5029734;28;20076;-56
2022/02/15 08:21:05;;;;;;;5.75;3.72;;;;;;;4.74;92.32;98950.38;5030390;28;20523;-56
2022/02/15 08:23:31;;;;;;;9.35;4.40;;;;;;;4.72;93.55;98954.28;5034647;28;20061;-55
2022/02/15 08:25:59;;;;;;;10.07;5.28;;;;;;;4.61;94.30;98961.03;5033137;28;20455;-55
2022/02/15 08:28:24;;;;;;;10.50;4.95;;;;;;;4.61;94.76;98957.59;5035880;28;20459;-56
2022/02/15 08:30:50;;;;;;;7.53;4.20;;;;;;;4.45;94.37;98957.03;5037682;28;20085;-57
2022/02/15 08:33:15;;;;;;;12.10;5.45;;;;;;;4.46;94.97;98963.16;5035080;28;20036;-56
2022/02/15 08:35:41;;;;;;;11.02;5.25;;;;;;;4.49;94.69;98966.22;5032482;28;20429;-56
2022/02/15 08:38:06;;;;;;;8.05;5.13;;;;;;;4.45;94.77;98978.25;5039995;28;20079;-55
2022/02/15 08:40:32;;;;;;;11.18;5.65;;;;;;;4.42;95.04;98973.38;5032487;28;20037;-56
2022/02/15 08:42:57;;;;;;;8.55;4.88;;;;;;;4.33;94.33;98990.53;5032257;28;20049;-56
2022/02/15 08:45:23;;;;;;;11.27;5.50;;;;;;;4.43;94.52;98996.22;5028339;28;20045;-56
2022/02/15 08:47:49;;;;;;;10.55;5.47;;;;;;;4.43;93.99;99001.53;5031601;28;20041;-56
2022/02/15 08:50:14;;;;;;;8.88;5.53;;;;;;;4.50;94.24;99009.47;5036756;28;20483;-54
2022/02/15 08:52:39;;;;;;;10.77;6.05;;;;;;;4.44;94.31;99013.78;5032712;28;20076;-55
2022/02/15 08:55:06;;;;;;;9.90;5.88;;;;;;;4.49;93.75;99010.50;5031162;28;20033;-56
2022/02/15 08:57:31;;;;;;;13.13;6.28;;;;;;;4.46;94.16;99006.41;5028575;28;20021;-56
2022/02/15 08:59:57;;;;;;;12.07;6.35;;;;;;;4.51;94.00;99011.91;5039998;28;20032;-56
2022/02/15 09:02:23;;;;;;;18.67;5.72;;;;;;;4.48;94.14;99004.38;5037853;28;20064;-55
2022/02/15 09:04:48;;;;;;;13.20;6.40;;;;;;;4.51;94.09;99009.25;5032271;28;20522;-56
2022/02/15 09:07:14;;;;;;;13.68;6.65;;;;;;;4.43;93.58;99022.75;5034738;28;20050;-55
2022/02/15 09:09:39;;;;;;;10.20;6.20;;;;;;;4.57;93.45;99023.56;5033957;28;20040;-55
2022/02/15 09:12:05;;;;;;;12.80;6.75;;;;;;;4.68;93.51;99019.44;5039563;28;20053;-55
2022/02/15 09:14:31;;;;;;;13.20;6.72;;;;;;;4.69;93.26;99015.75;5031842;28;20182;-57
2022/02/15 09:16:57;;;;;;;11.02;6.18;;;;;;;4.63;94.17;99022.72;5029951;28;20483;-57
2022/02/15 09:19:23;;;;;;;10.63;5.88;;;;;;;4.73;93.01;99022.28;5035204;28;20033;-56
2022/02/15 09:21:50;;;;;;;13.75;6.03;;;;;;;4.75;93.28;99021.03;5032078;28;20095;-56
2022/02/15 09:24:16;;;;;;;10.70;6.50;;;;;;;4.88;93.23;99025.47;5034986;28;20021;-56
2022/02/15 09:26:41;;;;;;;12.50;6.28;;;;;;;5.00;91.86;99020.34;5029554;28;20064;-56
2022/02/15 09:29:07;;;;;;;12.75;6.32;;;;;;;4.88;92.32;99024.69;5034770;28;20021;-55
2022/02/15 09:31:33;;;;;;;10.05;6.20;;;;;;;5.13;92.49;99027.44;5029469;28;20040;-57
2022/02/15 09:33:58;;;;;;;10.75;6.65;;;;;;;5.27;90.92;99029.00;5029373;28;20155;-56
2022/02/15 09:36:25;;;;;;;11.93;6.30;;;;;;;5.35;90.48;99022.63;5034756;28;20119;-55
2022/02/15 09:38:51;;;;;;;10.15;6.50;;;;;;;5.37;90.58;99018.72;5037527;28;20163;-56
2022/02/15 09:41:17;;;;;;;11.15;6.05;;;;;;;5.32;90.64;99028.38;5033979;28;20041;-56
2022/02/15 09:43:42;;;;;;;12.25;7.13;;;;;;;5.31;90.92;99019.56;5038221;28;20052;-56
2022/02/15 09:46:13;;;;;;;11.15;5.85;;;;;;;5.34;90.10;99039.56;5031836;28;20045;-56
2022/02/15 09:48:39;;;;;;;11.23;6.18;;;;;;;5.32;90.47;99045.13;5027095;28;20029;-56
2022/02/15 09:51:05;;;;;;;14.57;6.82;;;;;;;5.37;90.29;99045.28;5033518;28;20048;-56
2022/02/15 09:53:31;;;;;;;14.52;6.65;;;;;;;5.37;89.62;99047.94;5036244;28;20060;-56
2022/02/15 09:55:56;;;;;;;14.30;7.15;;;;;;;5.45;89.58;99041.56;5036702;28;20045;-56
2022/02/15 09:58:21;;;;;;;12.93;5.43;;;;;;;5.51;85.89;99037.22;5036779;28;20099;-55
2022/02/15 10:00:48;;;;;;;12.23;5.65;;;;;;;5.60;85.12;99055.38;5027858;28;20060;-56
2022/02/15 10:03:15;;;;;;;11.73;5.65;;;;;;;5.57;84.47;99055.00;5030372;28;20426;-57
2022/02/15 10:05:40;;;;;;;10.82;6.05;;;;;;;5.62;83.08;99071.13;5031765;28;20139;-56
2022/02/15 10:08:05;;;;;;;8.68;4.90;;;;;;;5.58;82.41;99061.94;5037846;28;20029;-56
2022/02/15 10:10:35;;;;;;;9.73;4.40;;;;;;;5.35;83.72;99073.91;5028541;28;20380;-56
2022/02/15 10:13:05;;;;;;;8.35;4.45;;;;;;;5.61;83.72;99066.81;5033560;28;20048;-56
2022/02/15 10:15:36;;;;;;;7.85;4.25;;;;;;;5.88;82.48;99067.47;5026353;28;20045;-57
2022/02/15 10:18:14;;;;;;;8.98;4.07;;;;;;;6.44;79.51;99073.78;5026735;28;20072;-55
2022/02/15 10:20:44;;;;;;;6.07;3.70;;;;;;;6.19;79.21;99082.63;5027723;28;20049;-54
2022/02/15 10:23:12;;;;;;;8.13;3.72;;;;;;;6.16;78.46;99080.38;5029214;28;20487;-56
2022/02/15 10:25:38;;;;;;;5.95;3.70;;;;;;;6.32;77.78;99079.03;5029799;28;20053;-54
2022/02/15 10:28:17;;;;;;;7.10;3.97;;;;;;;6.52;77.82;99070.84;5025511;28;20037;-57
2022/02/15 10:30:51;;;;;;;6.65;4.10;;;;;;;6.65;76.42;99075.22;5027949;28;20491;-56
2022/02/15 10:33:18;;;;;;;7.75;3.80;;;;;;;6.79;76.02;99074.06;5034805;28;20797;-55
2022/02/15 10:35:57;;;;;;;10.68;4.40;;;;;;;6.90;75.79;99077.84;5028872;28;20037;-56
2022/02/15 10:38:34;;;;;;;6.55;3.75;;;;;;;7.01;75.05;99082.41;5030024;28;20025;-57
2022/02/15 10:41:03;;;;;;;5.90;3.58;;;;;;;7.10;74.29;99080.28;5034265;28;20041;-58
2022/02/15 10:43:39;;;;;;;5.93;3.30;;;;;;;7.45;73.64;99071.63;5028668;28;20033;-54
2022/02/15 10:46:10;;;;;;;7.75;3.80;;;;;;;7.70;72.05;99072.28;5026453;28;20061;-55
2022/02/15 10:48:36;;;;;;;4.85;3.35;;;;;;;7.74;70.68;99070.81;5031714;28;20041;-57
2022/02/15 10:51:01;;;;;;;9.07;3.95;;;;;;;7.68;70.63;99063.69;5030398;28;20037;-57
2022/02/15 10:53:27;;;;;;;8.70;3.97;;;;;;;8.45;67.14;99070.94;5026219;28;20025;-54
2022/02/15 10:55:52;;;;;;;7.55;3.53;;;;;;;9.58;64.33;99074.06;5027041;28;20042;-54
2022/02/15 10:58:18;;;;;;;7.25;3.75;;;;;;;9.34;63.90;99072.56;5015662;28;20446;-56
2022/02/15 11:00:43;;;;;;;6.65;3.25;;;;;;;9.42;61.76;99077.50;5024323;28;20395;-55
2022/02/15 11:03:09;;;;;;;8.98;3.00;;;;;;;8.54;64.08;99071.41;5008896;28;20041;-54
2022/02/15 11:05:34;;;;;;;5.70;2.63;;;;;;;7.94;64.38;99073.19;5033544;28;20128;-54
2022/02/15 11:08:01;;;;;;;7.07;2.67;;;;;;;7.59;65.20;99074.91;5037002;28;20417;-54
2022/02/15 11:10:32;;;;;;;5.82;2.92;;;;;;;7.53;64.97;99069.44;5029966;28;20120;-54
2022/02/15 11:12:58;;;;;;;5.28;2.88;;;;;;;7.43;66.18;99081.72;5036740;28;20505;-54
2022/02/15 11:15:30;;;;;;;5.60;2.85;;;;;;;7.31;66.97;99086.97;5028434;28;20048;-55
2022/02/15 11:17:57;;;;;;;8.27;3.72;;;;;;;7.15;66.77;99092.94;5035418;28;20116;-55
2022/02/15 11:20:29;;;;;;;7.28;3.38;;;;;;;7.05;68.34;99101.44;5029665;28;20041;-54
2022/02/15 11:22:56;;;;;;;7.70;3.83;;;;;;;6.80;71.80;99101.50;5034471;28;20025;-55
2022/02/15 11:25:31;;;;;;;7.03;3.33;;;;;;;6.55;73.78;99099.69;5032523;28;20068;-55
2022/02/15 11:28:07;;;;;;;8.57;3.70;;;;;;;6.66;73.04;99106.16;5030058;28;20061;-54
2022/02/15 11:30:45;;;;;;;6.60;3.25;;;;;;;6.79;70.55;99097.19;5038310;28;20055;-57
2022/02/15 11:33:16;;;;;;;9.02;3.35;;;;;;;6.75;69.71;99086.19;5028837;28;20383;-56